Time;durP1;ratioP1;P1;durP2;ratioP2;P2;SDS_P1;SDS_P2;PMS_P1;PMS_P2;Temp;Humidity;BMP_temperature;BMP_pressure;BME280_temperature;BME280_humidity;BME280_pressure;Samples;Min_cycle;Max_cycle;Signal;HPM_P1;HPM_P2
2022/10/04 00:01:52;;;;;;;;;;;;;;;13.30;72.82;101774.78;4997246;28;19921;-52
2022/10/04 00:04:27;;;;;;;;;;;;;;;13.30;72.84;101765.06;4993117;28;20402;-53
2022/10/04 00:07:02;;;;;;;;;;;;;;;13.30;72.71;101761.56;4997095;28;19932;-52
2022/10/04 00:09:32;;;;;;;;;;;;;;;13.25;72.85;101760.03;4990305;28;19971;-54
2022/10/04 00:11:59;;;;;;;;;;;;;;;13.25;73.05;101767.06;4994155;28;19916;-55
2022/10/04 00:14:29;;;;;;;;;;;;;;;13.23;73.04;101758.41;4993821;28;19932;-52
2022/10/04 00:16:55;;;;;;;;;;;;;;;13.23;73.06;101763.69;4992267;28;20437;-52
2022/10/04 00:19:41;;;;;;;;;;;;;;;13.26;72.88;101758.22;4994944;28;19929;-53
2022/10/04 00:22:09;;;;;;;;;;;;;;;13.27;73.02;101765.22;4995076;28;19922;-53
2022/10/04 00:24:35;;;;;;;;;;;;;;;13.26;72.92;101760.84;4998564;28;19922;-54
2022/10/04 00:27:17;;;;;;;;;;;;;;;13.22;73.20;101757.53;4995716;28;19917;-52
2022/10/04 00:29:48;;;;;;;;;;;;;;;13.23;73.18;101761.03;4993198;28;19925;-53
2022/10/04 00:32:13;;;;;;;;;;;;;;;13.24;73.29;101757.44;4992306;28;19932;-57
2022/10/04 00:34:48;;;;;;;;;;;;;;;13.23;73.21;101766.31;4994995;28;19921;-55
2022/10/04 00:37:15;;;;;;;;;;;;;;;13.22;73.05;101761.97;4997959;28;19921;-55
2022/10/04 00:39:42;;;;;;;;;;;;;;;13.20;73.20;101766.47;4996084;28;19944;-53
2022/10/04 00:42:26;;;;;;;;;;;;;;;13.18;73.26;101765.72;4992498;28;20484;-55
2022/10/04 00:45:10;;;;;;;;;;;;;;;13.15;73.26;101768.50;4991273;28;19921;-54
2022/10/04 00:47:47;;;;;;;;;;;;;;;13.13;73.51;101765.09;4996006;28;20020;-55
2022/10/04 00:50:19;;;;;;;;;;;;;;;13.10;73.54;101764.31;4993795;28;19964;-53
2022/10/04 00:52:46;;;;;;;;;;;;;;;13.10;73.44;101763.47;4997512;28;20506;-53
2022/10/04 00:55:21;;;;;;;;;;;;;;;13.05;73.53;101762.84;4995359;28;20125;-52
2022/10/04 00:57:48;;;;;;;;;;;;;;;13.03;73.57;101760.28;4994833;28;20152;-54
2022/10/04 01:00:14;;;;;;;;;;;;;;;13.02;73.63;101760.34;4990952;28;19952;-55
2022/10/04 01:03:15;;;;;;;;;;;;;;;13.02;73.72;101765.63;4990462;28;20302;-53
2022/10/04 01:05:48;;;;;;;;;;;;;;;13.03;73.73;101764.69;4982396;28;20379;-53
2022/10/04 01:08:17;;;;;;;;;;;;;;;13.03;73.64;101754.13;4998817;28;20345;-52
2022/10/04 01:11:05;;;;;;;;;;;;;;;13.03;73.78;101757.66;4993586;28;20017;-55
2022/10/04 01:13:37;;;;;;;;;;;;;;;13.04;73.65;101763.78;4996347;28;19921;-52
2022/10/04 01:16:08;;;;;;;;;;;;;;;13.02;73.73;101761.22;4994235;28;20297;-51
2022/10/04 01:18:34;;;;;;;;;;;;;;;12.99;73.86;101766.66;4993110;28;19921;-54
2022/10/04 01:21:08;;;;;;;;;;;;;;;13.00;73.83;101756.97;4991786;28;19947;-52
2022/10/04 01:23:40;;;;;;;;;;;;;;;13.01;73.93;101766.59;4993139;28;19964;-53
2022/10/04 01:26:25;;;;;;;;;;;;;;;13.02;73.90;101766.50;4993886;28;20037;-54
2022/10/04 01:29:10;;;;;;;;;;;;;;;13.04;73.88;101763.78;4995255;28;20382;-52
2022/10/04 01:31:37;;;;;;;;;;;;;;;13.08;74.03;101774.09;4990289;28;19969;-55
2022/10/04 01:34:04;;;;;;;;;;;;;;;13.13;73.91;101773.00;4986309;28;21186;-54
2022/10/04 01:36:30;;;;;;;;;;;;;;;13.18;73.87;101766.53;4995172;28;20386;-56
2022/10/04 01:38:55;;;;;;;;;;;;;;;13.20;73.58;101769.13;4992931;28;19931;-54
2022/10/04 01:41:27;;;;;;;;;;;;;;;13.26;73.53;101766.13;4997671;28;19937;-52
2022/10/04 01:43:57;;;;;;;;;;;;;;;13.28;73.49;101769.56;4996057;28;19928;-52
2022/10/04 01:46:27;;;;;;;;;;;;;;;13.30;73.46;101767.69;4993894;28;19925;-54
2022/10/04 01:48:53;;;;;;;;;;;;;;;13.31;73.46;101772.03;4994436;28;20432;-51
2022/10/04 01:51:23;;;;;;;;;;;;;;;13.32;73.46;101762.31;4995097;28;19918;-54
2022/10/04 01:53:53;;;;;;;;;;;;;;;13.34;73.52;101766.59;4992270;28;19972;-52
2022/10/04 01:56:20;;;;;;;;;;;;;;;13.36;73.39;101762.09;4994208;28;22073;-53
2022/10/04 01:58:48;;;;;;;;;;;;;;;13.37;73.45;101763.81;4995042;28;19917;-53
2022/10/04 02:01:27;;;;;;;;;;;;;;;13.40;73.47;101766.28;4992507;28;19937;-53
2022/10/04 02:04:00;;;;;;;;;;;;;;;13.42;73.37;101760.94;4992856;28;20357;-56
2022/10/04 02:06:26;;;;;;;;;;;;;;;13.43;73.51;101759.13;4991897;28;19929;-54
2022/10/04 02:08:56;;;;;;;;;;;;;;;13.45;73.44;101758.16;4994520;28;20359;-55
2022/10/04 02:11:22;;;;;;;;;;;;;;;13.45;73.33;101758.16;4995282;28;20048;-56
2022/10/04 02:13:49;;;;;;;;;;;;;;;13.45;73.38;101757.28;4989506;28;19929;-53
2022/10/04 02:16:16;;;;;;;;;;;;;;;13.45;73.29;101759.91;4993368;28;19922;-55
2022/10/04 02:18:43;;;;;;;;;;;;;;;13.43;73.47;101753.84;4993524;28;19932;-54
2022/10/04 02:21:10;;;;;;;;;;;;;;;13.41;73.51;101760.06;4989297;28;20012;-54
2022/10/04 02:23:36;;;;;;;;;;;;;;;13.40;73.49;101754.88;4991755;28;19922;-54
2022/10/04 02:26:05;;;;;;;;;;;;;;;13.38;73.50;101756.72;4994056;28;20378;-54
2022/10/04 02:28:31;;;;;;;;;;;;;;;13.34;73.43;101761.31;4992259;28;20336;-53
2022/10/04 02:33:43;;;;;;;;;;;;;;;13.29;73.75;101763.34;4991202;28;19973;-53
2022/10/04 02:36:09;;;;;;;;;;;;;;;13.27;73.68;101763.44;4994031;28;20293;-53
2022/10/04 02:38:40;;;;;;;;;;;;;;;13.28;73.92;101766.91;4989152;28;20374;-54
2022/10/04 02:41:15;;;;;;;;;;;;;;;13.30;73.94;101761.56;4990244;28;21155;-55
2022/10/04 02:43:40;;;;;;;;;;;;;;;13.30;73.92;101765.06;4993723;28;21484;-54
2022/10/04 02:46:10;;;;;;;;;;;;;;;13.31;73.65;101756.19;4993761;28;19925;-55
2022/10/04 02:48:38;;;;;;;;;;;;;;;13.31;73.71;101761.47;4995061;28;19918;-54
2022/10/04 02:51:25;;;;;;;;;;;;;;;13.32;73.78;101762.31;4994342;28;19917;-57
2022/10/04 02:53:53;;;;;;;;;;;;;;;13.34;73.78;101757.81;4991481;28;20016;-54
2022/10/04 02:56:21;;;;;;;;;;;;;;;13.35;73.68;101770.97;4996145;28;20031;-54
2022/10/04 02:58:46;;;;;;;;;;;;;;;13.37;73.64;101758.53;4991274;28;20094;-54
2022/10/04 03:01:16;;;;;;;;;;;;;;;13.40;73.52;101749.59;4992687;28;19929;-53
2022/10/04 03:03:44;;;;;;;;;;;;;;;13.41;73.58;101757.44;4995339;28;19918;-53
2022/10/04 03:06:17;;;;;;;;;;;;;;;13.44;73.45;101760.84;5005662;28;19917;-52
2022/10/04 03:08:42;;;;;;;;;;;;;;;13.43;73.48;101753.84;4995629;28;20639;-54
2022/10/04 03:11:10;;;;;;;;;;;;;;;13.41;73.34;101761.88;4993652;28;19923;-56
2022/10/04 03:13:36;;;;;;;;;;;;;;;13.44;73.65;101766.13;4991787;28;19922;-55
2022/10/04 03:16:02;;;;;;;;;;;;;;;13.45;73.42;101762.56;4992479;28;19936;-51
2022/10/04 03:18:29;;;;;;;;;;;;;;;13.47;73.33;101764.19;4993262;28;19925;-53
2022/10/04 03:20:55;;;;;;;;;;;;;;;13.47;73.33;101763.34;4993742;28;20027;-57
2022/10/04 03:23:20;;;;;;;;;;;;;;;13.46;73.33;101758.97;4993533;28;19926;-54
2022/10/04 03:25:51;;;;;;;;;;;;;;;13.44;73.31;101751.16;4992786;28;19929;-53
2022/10/04 03:28:17;;;;;;;;;;;;;;;13.39;73.37;101753.13;4995041;28;20388;-54
2022/10/04 03:30:45;;;;;;;;;;;;;;;13.37;73.54;101755.88;4986362;28;19965;-53
2022/10/04 03:33:16;;;;;;;;;;;;;;;13.38;73.57;101752.28;4997936;28;19925;-54
2022/10/04 03:35:43;;;;;;;;;;;;;;;13.40;73.54;101761.00;4995622;28;19972;-53
2022/10/04 03:38:11;;;;;;;;;;;;;;;13.43;73.30;101752.09;4998435;28;19929;-52
2022/10/04 03:40:39;;;;;;;;;;;;;;;13.45;73.15;101757.28;4996215;28;19922;-55
2022/10/04 03:43:04;;;;;;;;;;;;;;;13.43;73.27;101757.38;4995491;28;19925;-54
2022/10/04 03:45:31;;;;;;;;;;;;;;;13.43;73.19;101757.38;4998693;28;19936;-54
2022/10/04 03:47:59;;;;;;;;;;;;;;;13.43;73.22;101759.13;5001741;28;20301;-53
2022/10/04 03:50:26;;;;;;;;;;;;;;;13.41;73.21;101757.44;5000842;28;20337;-54
2022/10/04 03:53:16;;;;;;;;;;;;;;;13.42;73.18;101755.66;5002534;28;19932;-54
2022/10/04 03:55:43;;;;;;;;;;;;;;;13.40;73.25;101755.72;4989800;28;20016;-52
2022/10/04 03:58:10;;;;;;;;;;;;;;;13.38;73.12;101757.59;4996234;28;19922;-54
2022/10/04 04:00:39;;;;;;;;;;;;;;;13.39;73.16;101763.72;5001511;28;19921;-55
2022/10/04 04:03:06;;;;;;;;;;;;;;;13.37;73.14;101766.44;4997503;28;19922;-55
2022/10/04 04:05:38;;;;;;;;;;;;;;;13.38;73.17;101772.56;4998328;28;19929;-52
2022/10/04 04:08:11;;;;;;;;;;;;;;;13.38;73.26;101773.44;4997750;28;20019;-51
2022/10/04 04:10:40;;;;;;;;;;;;;;;13.38;73.14;101762.88;5001131;28;19925;-54
2022/10/04 04:13:14;;;;;;;;;;;;;;;13.39;73.13;101764.56;4998955;28;19921;-53
2022/10/04 04:15:42;;;;;;;;;;;;;;;13.40;73.10;101766.28;4999689;28;20139;-52
2022/10/04 04:18:16;;;;;;;;;;;;;;;13.42;73.18;101768.88;4995583;28;19933;-51
2022/10/04 04:20:42;;;;;;;;;;;;;;;13.40;73.23;101776.88;4993727;28;20449;-54
2022/10/04 04:23:21;;;;;;;;;;;;;;;13.39;73.14;101774.28;4993564;28;19929;-54
2022/10/04 04:25:48;;;;;;;;;;;;;;;13.37;73.07;101771.75;4996730;28;19930;-52
2022/10/04 04:28:20;;;;;;;;;;;;;;;13.37;73.07;101782.31;5004033;28;20024;-51
2022/10/04 04:30:49;;;;;;;;;;;;;;;13.36;73.13;101775.31;5000961;28;19932;-51
2022/10/04 04:33:25;;;;;;;;;;;;;;;13.36;73.09;101775.31;4988250;28;19936;-51
2022/10/04 04:35:53;;;;;;;;;;;;;;;13.32;72.98;101772.88;4993416;28;19937;-54
2022/10/04 04:38:21;;;;;;;;;;;;;;;13.27;72.99;101776.66;4993462;28;19932;-54
2022/10/04 04:40:46;;;;;;;;;;;;;;;13.23;72.97;101774.25;4991024;28;20446;-51
2022/10/04 04:43:16;;;;;;;;;;;;;;;13.18;73.20;101776.28;4992565;28;20016;-50
2022/10/04 04:45:41;;;;;;;;;;;;;;;13.12;72.94;101782.75;4991611;28;19926;-52
2022/10/04 04:48:07;;;;;;;;;;;;;;;13.09;73.19;101780.25;4991181;28;19933;-52
2022/10/04 04:50:38;;;;;;;;;;;;;;;13.06;73.15;101788.31;4988294;28;19971;-53
2022/10/04 04:53:03;;;;;;;;;;;;;;;13.04;73.19;101788.41;4991246;28;20173;-51
2022/10/04 04:55:31;;;;;;;;;;;;;;;13.05;73.36;101792.78;4990010;28;20386;-54
2022/10/04 04:57:58;;;;;;;;;;;;;;;13.05;73.12;101790.13;4987219;28;19926;-51
2022/10/04 05:00:32;;;;;;;;;;;;;;;13.05;73.18;101792.78;4989766;28;19975;-54
2022/10/04 05:02:58;;;;;;;;;;;;;;;13.05;73.20;101795.41;4995311;28;19933;-51
2022/10/04 05:05:26;;;;;;;;;;;;;;;13.09;73.02;101802.22;5000658;28;20449;-51
2022/10/04 05:08:11;;;;;;;;;;;;;;;13.11;73.11;101791.59;4996334;28;19921;-51
2022/10/04 05:10:37;;;;;;;;;;;;;;;13.10;72.84;101789.88;5002831;28;19917;-55
2022/10/04 05:13:03;;;;;;;;;;;;;;;13.06;72.86;101797.13;4993863;28;19933;-51
2022/10/04 05:15:33;;;;;;;;;;;;;;;13.03;72.99;101799.91;4998299;28;19944;-51
2022/10/04 05:17:59;;;;;;;;;;;;;;;13.01;72.95;101801.78;4997663;28;19965;-53
2022/10/04 05:20:25;;;;;;;;;;;;;;;12.98;72.76;101801.94;4998450;28;19953;-54
2022/10/04 05:22:51;;;;;;;;;;;;;;;12.93;73.09;101803.97;4995650;28;20020;-54
2022/10/04 05:25:46;;;;;;;;;;;;;;;12.92;73.13;101802.25;4999297;28;19922;-53
2022/10/04 05:28:13;;;;;;;;;;;;;;;12.87;73.18;101807.75;4996420;28;19944;-54
2022/10/04 05:30:39;;;;;;;;;;;;;;;12.85;72.95;101809.66;4995832;28;19932;-52
2022/10/04 05:33:13;;;;;;;;;;;;;;;12.81;73.26;101810.72;4996064;28;19922;-51
2022/10/04 05:35:57;;;;;;;;;;;;;;;12.79;73.26;101808.13;4998515;28;19968;-53
2022/10/04 05:38:37;;;;;;;;;;;;;;;12.77;73.19;101802.09;4997518;28;19995;-55
2022/10/04 05:41:08;;;;;;;;;;;;;;;12.78;73.45;101810.88;4998236;28;19925;-52
2022/10/04 05:43:49;;;;;;;;;;;;;;;12.80;73.34;101809.84;4999410;28;19922;-53
2022/10/04 05:46:32;;;;;;;;;;;;;;;12.83;73.40;101806.22;4999263;28;19933;-53
2022/10/04 05:48:59;;;;;;;;;;;;;;;12.86;73.24;101806.03;4998558;28;19926;-51
2022/10/04 05:51:29;;;;;;;;;;;;;;;12.91;73.24;101811.97;4999078;28;19921;-51
2022/10/04 05:53:56;;;;;;;;;;;;;;;12.93;73.08;101810.09;4996146;28;20028;-53
2022/10/04 05:56:33;;;;;;;;;;;;;;;12.94;73.04;101816.22;4998041;28;20562;-51
2022/10/04 05:59:02;;;;;;;;;;;;;;;12.95;72.81;101817.94;4997565;28;19922;-51
2022/10/04 06:01:27;;;;;;;;;;;;;;;12.94;72.77;101822.38;4999822;28;19924;-53
2022/10/04 06:03:56;;;;;;;;;;;;;;;12.93;72.76;101827.75;4998642;28;19917;-54
2022/10/04 06:06:21;;;;;;;;;;;;;;;12.90;72.93;101826.09;4999521;28;20284;-55
2022/10/04 06:09:10;;;;;;;;;;;;;;;12.92;73.04;101820.75;4997380;28;20390;-53
2022/10/04 06:11:41;;;;;;;;;;;;;;;12.97;73.03;101829.28;4998778;28;19921;-56
2022/10/04 06:14:07;;;;;;;;;;;;;;;12.99;72.89;101830.06;4993934;28;20326;-52
2022/10/04 06:16:50;;;;;;;;;;;;;;;13.02;72.90;101829.91;4997324;28;19924;-53
2022/10/04 06:19:18;;;;;;;;;;;;;;;13.04;72.68;101833.34;4998509;28;20685;-53
2022/10/04 06:21:52;;;;;;;;;;;;;;;13.02;72.87;101829.91;4992888;28;19972;-54
2022/10/04 06:24:24;;;;;;;;;;;;;;;13.04;72.88;101838.63;4995563;28;19935;-51
2022/10/04 06:26:53;;;;;;;;;;;;;;;13.08;72.89;101840.16;4997017;28;20296;-53
2022/10/04 06:29:22;;;;;;;;;;;;;;;13.14;72.92;101846.06;4998030;28;19933;-54
2022/10/04 06:31:53;;;;;;;;;;;;;;;13.19;72.77;101844.06;4998111;28;19926;-54
2022/10/04 06:34:37;;;;;;;;;;;;;;;13.22;72.68;101841.25;4999567;28;19960;-53
2022/10/04 06:37:04;;;;;;;;;;;;;;;13.24;72.52;101840.25;4998245;28;19932;-53
2022/10/04 06:39:42;;;;;;;;;;;;;;;13.25;72.58;101849.00;4997804;28;20382;-51
2022/10/04 06:42:32;;;;;;;;;;;;;;;13.23;72.72;101850.91;4998318;28;20177;-54
2022/10/04 06:45:17;;;;;;;;;;;;;;;13.24;72.69;101844.66;4990101;28;19929;-55
2022/10/04 06:48:00;;;;;;;;;;;;;;;13.27;72.77;101850.66;4999157;28;19917;-51
2022/10/04 06:50:32;;;;;;;;;;;;;;;13.26;72.69;101856.88;4997688;28;19924;-51
2022/10/04 06:53:06;;;;;;;;;;;;;;;13.28;73.04;101854.13;4995733;28;20031;-52
2022/10/04 06:55:32;;;;;;;;;;;;;;;13.32;72.87;101858.34;4996454;28;20072;-52
2022/10/04 06:58:08;;;;;;;;;;;;;;;13.39;72.66;101866.81;4996594;28;20012;-51
2022/10/04 07:00:40;;;;;;;;;;;;;;;13.41;72.76;101868.47;4996560;28;19918;-54
2022/10/04 07:03:11;;;;;;;;;;;;;;;13.47;72.57;101877.03;4997885;28;19928;-52
2022/10/04 07:05:47;;;;;;;;;;;;;;;13.51;72.52;101873.28;4997835;28;20425;-52
2022/10/04 07:08:12;;;;;;;;;;;;;;;13.53;72.51;101872.28;5000794;28;19929;-53
2022/10/04 07:10:46;;;;;;;;;;;;;;;13.57;72.52;101873.81;4999534;28;19925;-52
2022/10/04 07:13:21;;;;;;;;;;;;;;;13.61;72.28;101877.16;4999868;28;19925;-52
2022/10/04 07:15:52;;;;;;;;;;;;;;;13.63;72.30;101866.47;5001629;28;19913;-53
2022/10/04 07:18:26;;;;;;;;;;;;;;;13.63;72.29;101872.66;5001628;28;19926;-51
2022/10/04 07:20:58;;;;;;;;;;;;;;;13.65;72.30;101881.34;5002404;28;19914;-54
2022/10/04 07:23:37;;;;;;;;;;;;;;;13.66;72.28;101883.06;5003275;28;19972;-56
2022/10/04 07:26:05;;;;;;;;;;;;;;;13.68;72.25;101875.91;4999499;28;19929;-53
2022/10/04 07:31:23;;;;;;;;;;;;;;;13.75;72.12;101884.38;4997758;28;19968;-51
2022/10/04 07:33:50;;;;;;;;;;;;;;;13.76;72.17;101883.44;4999487;28;19925;-55
2022/10/04 07:36:34;;;;;;;;;;;;;;;13.78;72.08;101886.84;4999050;28;19922;-53
2022/10/04 07:39:04;;;;;;;;;;;;;;;13.81;72.25;101897.25;5003129;28;20011;-55
2022/10/04 07:41:29;;;;;;;;;;;;;;;13.85;72.27;101897.94;5000719;28;19943;-53
2022/10/04 07:44:00;;;;;;;;;;;;;;;13.89;72.08;101893.38;5002761;28;19921;-53
2022/10/04 07:46:41;;;;;;;;;;;;;;;13.91;71.92;101897.63;5000515;28;19922;-54
2022/10/04 07:49:16;;;;;;;;;;;;;;;13.93;71.99;101898.41;5004834;28;19964;-53
2022/10/04 07:51:48;;;;;;;;;;;;;;;13.94;72.08;101913.34;4999147;28;19952;-53
2022/10/04 07:54:25;;;;;;;;;;;;;;;13.96;72.05;101906.19;4998588;28;20317;-53
2022/10/04 07:57:03;;;;;;;;;;;;;;;13.97;71.92;101907.91;4999049;28;19921;-56
2022/10/04 07:59:39;;;;;;;;;;;;;;;13.98;71.95;101906.97;5001849;28;20034;-55
2022/10/04 08:02:14;;;;;;;;;;;;;;;13.99;71.80;101910.44;5000228;28;19918;-57
2022/10/04 08:04:45;;;;;;;;;;;;;;;13.99;71.70;101919.22;4999243;28;20349;-55
2022/10/04 08:07:21;;;;;;;;;;;;;;;13.98;71.72;101919.31;5002275;28;20012;-55
2022/10/04 08:09:55;;;;;;;;;;;;;;;13.99;71.66;101921.03;5000585;28;19921;-52
2022/10/04 08:12:30;;;;;;;;;;;;;;;14.01;71.75;101920.00;5000713;28;20452;-55
2022/10/04 08:15:13;;;;;;;;;;;;;;;14.02;71.69;101926.16;4999832;28;19917;-51
2022/10/04 08:17:51;;;;;;;;;;;;;;;14.03;71.77;101918.13;4997970;28;20008;-52
2022/10/04 08:20:35;;;;;;;;;;;;;;;14.09;71.85;101921.41;4999184;28;19918;-53
2022/10/04 08:23:12;;;;;;;;;;;;;;;14.15;71.77;101936.94;4998096;28;20585;-55
2022/10/04 08:25:48;;;;;;;;;;;;;;;14.20;71.54;101929.59;5001159;28;20293;-56
2022/10/04 08:31:20;;;;;;;;;;;;;;;14.20;71.16;101937.53;4998355;28;19963;-54
2022/10/04 08:33:54;;;;;;;;;;;;;;;14.23;71.35;101949.75;4999012;28;20004;-56
2022/10/04 08:36:38;;;;;;;;;;;;;;;14.25;71.21;101947.88;4999341;28;19921;-53
2022/10/04 08:39:15;;;;;;;;;;;;;;;14.25;71.25;101948.75;4996471;28;20008;-53
2022/10/04 08:41:53;;;;;;;;;;;;;;;14.27;71.18;101951.31;4999762;28;19917;-53
2022/10/04 08:44:36;;;;;;;;;;;;;;;14.28;71.07;101945.94;4997968;28;19977;-51
2022/10/04 08:47:02;;;;;;;;;;;;;;;14.30;71.03;101946.69;4997083;28;20720;-52
2022/10/04 08:49:46;;;;;;;;;;;;;;;14.30;71.04;101946.69;4997943;28;20306;-56
2022/10/04 08:52:28;;;;;;;;;;;;;;;14.34;71.21;101952.69;4998232;28;19928;-53
2022/10/04 08:55:10;;;;;;;;;;;;;;;14.37;70.89;101943.72;4997037;28;20013;-57
2022/10/04 08:57:35;;;;;;;;;;;;;;;14.41;71.05;101950.56;5002806;28;19922;-55
2022/10/04 09:00:12;;;;;;;;;;;;;;;14.46;71.03;101940.56;4998239;28;19917;-53
2022/10/04 09:03:03;;;;;;;;;;;;;;;14.56;71.08;101940.91;4998754;28;19921;-53
2022/10/04 09:05:29;;;;;;;;;;;;;;;14.66;70.87;101942.13;4997239;28;20245;-55
2022/10/04 09:08:09;;;;;;;;;;;;;;;14.72;70.67;101939.13;5000401;28;19932;-54
2022/10/04 09:10:34;;;;;;;;;;;;;;;14.76;70.52;101953.06;5001439;28;19939;-55
2022/10/04 09:13:06;;;;;;;;;;;;;;;14.78;70.32;101951.19;4994593;28;20389;-55
2022/10/04 09:15:34;;;;;;;;;;;;;;;14.79;70.26;101942.28;5002239;28;19921;-54
2022/10/04 09:18:11;;;;;;;;;;;;;;;14.78;70.14;101940.59;4997986;28;19990;-54
2022/10/04 09:20:50;;;;;;;;;;;;;;;14.77;70.12;101945.03;5001308;28;19913;-56
2022/10/04 09:23:20;;;;;;;;;;;;;;;14.78;70.23;101945.88;4996776;28;20044;-54
2022/10/04 09:26:06;;;;;;;;;;;;;;;14.80;70.00;101949.31;4998523;28;20456;-54
2022/10/04 09:28:50;;;;;;;;;;;;;;;14.81;69.95;101948.38;4993832;28;19964;-54
2022/10/04 09:31:35;;;;;;;;;;;;;;;14.83;70.10;101949.13;4997618;28;19922;-55
2022/10/04 09:34:21;;;;;;;;;;;;;;;14.87;70.12;101949.81;4998321;28;19965;-54
2022/10/04 09:36:49;;;;;;;;;;;;;;;14.93;69.99;101945.00;5001808;28;19946;-53
2022/10/04 09:39:21;;;;;;;;;;;;;;;15.01;69.82;101949.03;4997721;28;20043;-55
2022/10/04 09:42:02;;;;;;;;;;;;;;;15.08;69.77;101953.91;4999283;28;20337;-53
2022/10/04 09:44:28;;;;;;;;;;;;;;;15.15;69.55;101938.50;4999906;28;19940;-55
2022/10/04 09:46:59;;;;;;;;;;;;;;;15.21;69.50;101938.13;4999053;28;20484;-55
2022/10/04 09:49:31;;;;;;;;;;;;;;;15.26;69.32;101942.31;4998101;28;19928;-51
2022/10/04 09:51:58;;;;;;;;;;;;;;;15.29;69.23;101942.13;5001931;28;19940;-53
2022/10/04 09:54:32;;;;;;;;;;;;;;;15.30;69.12;101944.69;5011604;28;19926;-54
2022/10/04 09:57:00;;;;;;;;;;;;;;;15.33;68.77;101941.00;4998856;28;19921;-51
2022/10/04 09:59:46;;;;;;;;;;;;;;;15.34;68.75;101948.03;5012245;28;19932;-52
2022/10/04 10:02:28;;;;;;;;;;;;;;;15.38;68.67;101942.44;4994187;28;19929;-52
2022/10/04 10:05:01;;;;;;;;;;;;;;;15.44;68.50;101937.69;4996514;28;19925;-52
2022/10/04 10:08:01;;;;;;;;;;;;;;;15.50;68.52;101938.19;4996039;28;19917;-52
2022/10/04 10:13:41;;;;;;;;;;;;;;;15.61;67.70;101944.66;4998790;28;19972;-52
2022/10/04 10:16:26;;;;;;;;;;;;;;;15.59;67.56;101941.25;4998800;28;19928;-52
2022/10/04 10:18:55;;;;;;;;;;;;;;;15.61;67.68;101944.66;4996839;28;20294;-52
2022/10/04 10:21:27;;;;;;;;;;;;;;;15.62;67.57;101951.69;4998640;28;19921;-52
2022/10/04 10:24:01;;;;;;;;;;;;;;;15.64;67.71;101955.09;5001277;28;19922;-52
2022/10/04 10:26:38;;;;;;;;;;;;;;;15.64;67.50;101950.63;4995711;28;19932;-55
2022/10/04 10:29:04;;;;;;;;;;;;;;;15.64;67.49;101958.59;4997505;28;19924;-52
2022/10/04 10:31:50;;;;;;;;;;;;;;;15.64;67.35;101960.41;4997122;28;19927;-53
2022/10/04 10:34:27;;;;;;;;;;;;;;;15.62;67.33;101962.31;4998100;28;20390;-54
2022/10/04 10:36:52;;;;;;;;;;;;;;;15.64;67.46;101965.72;4995331;28;20441;-52
2022/10/04 10:39:36;;;;;;;;;;;;;;;15.62;67.32;101967.59;4999983;28;20008;-53
2022/10/04 10:42:20;;;;;;;;;;;;;;;15.61;67.33;101966.75;4999830;28;20161;-52
2022/10/04 10:44:46;;;;;;;;;;;;;;;15.60;67.25;101959.72;5002497;28;19931;-52
2022/10/04 10:47:18;;;;;;;;;;;;;;;15.61;67.25;101957.94;4998905;28;21198;-54
2022/10/04 10:49:50;;;;;;;;;;;;;;;15.60;67.13;101957.06;5001835;28;19926;-54
2022/10/04 10:52:31;;;;;;;;;;;;;;;15.60;67.13;101964.19;5001617;28;19924;-55
2022/10/04 10:55:08;;;;;;;;;;;;;;;15.60;67.26;101966.84;5001872;28;19929;-52
2022/10/04 10:58:02;;;;;;;;;;;;;;;15.61;67.05;101963.25;5003068;28;19913;-56
2022/10/04 11:00:50;;;;;;;;;;;;;;;15.63;67.14;101964.84;5005253;28;19925;-54
2022/10/04 11:03:33;;;;;;;;;;;;;;;15.69;67.16;101963.63;5015460;28;19922;-57
2022/10/04 11:06:10;;;;;;;;;;;;;;;15.75;66.94;101957.97;5002470;28;19996;-56
2022/10/04 11:08:48;;;;;;;;;;;;;;;15.79;66.77;101964.78;5002007;28;20506;-56
2022/10/04 11:11:32;;;;;;;;;;;;;;;15.80;66.72;101966.50;5002007;28;19922;-53
2022/10/04 11:14:11;;;;;;;;;;;;;;;15.82;66.47;101967.25;5003145;28;20012;-52
2022/10/04 11:17:08;;;;;;;;;;;;;;;15.83;66.58;101970.78;5000719;28;19921;-52
2022/10/04 11:19:54;;;;;;;;;;;;;;;15.85;66.68;101967.09;5000107;28;19918;-52
2022/10/04 11:22:41;;;;;;;;;;;;;;;15.88;66.66;101967.84;4999535;28;19924;-54
2022/10/04 11:25:06;;;;;;;;;;;;;;;15.89;66.56;101965.09;5001765;28;19925;-51
2022/10/04 11:27:47;;;;;;;;;;;;;;;15.91;66.40;101962.38;5000725;28;20507;-53
2022/10/04 11:30:27;;;;;;;;;;;;;;;15.95;66.26;101958.59;4992002;28;20337;-52
2022/10/04 11:33:28;;;;;;;;;;;;;;;15.98;66.19;101963.69;4984082;28;19984;-53
2022/10/04 11:35:57;;;;;;;;;;;;;;;16.03;65.87;101952.81;4909725;29;19930;-52
2022/10/04 11:38:32;;;;;;;;;;;;;;;16.05;65.78;101959.72;4978897;28;19924;-52
2022/10/04 11:41:20;;;;;;;;;;;;;;;16.06;65.39;101950.81;4993300;28;19926;-52
2022/10/04 11:43:57;;;;;;;;;;;;;;;16.03;65.08;101945.69;4994056;28;20352;-51
2022/10/04 11:46:23;;;;;;;;;;;;;;;16.02;65.01;101951.94;4992783;28;20506;-53
2022/10/04 11:48:52;;;;;;;;;;;;;;;16.01;65.26;101958.19;4998475;28;19926;-52
2022/10/04 11:51:29;;;;;;;;;;;;;;;16.02;65.22;101961.72;4993973;28;20036;-52
2022/10/04 11:54:15;;;;;;;;;;;;;;;16.04;65.03;101962.44;4994670;28;19930;-53
2022/10/04 11:56:43;;;;;;;;;;;;;;;16.06;64.96;101955.25;4998156;28;19918;-52
2022/10/04 11:59:45;;;;;;;;;;;;;;;16.06;64.82;101945.50;4998311;28;20314;-53
2022/10/04 12:02:16;;;;;;;;;;;;;;;16.06;64.68;101945.50;4990813;28;19963;-52
2022/10/04 12:04:57;;;;;;;;;;;;;;;16.03;64.78;101945.69;4999627;28;19937;-53
2022/10/04 12:07:41;;;;;;;;;;;;;;;16.04;64.73;101941.22;4997103;28;20015;-53
2022/10/04 12:10:19;;;;;;;;;;;;;;;16.07;64.81;101941.91;4990571;28;19953;-52
2022/10/04 12:13:03;;;;;;;;;;;;;;;16.10;64.71;101936.41;4992493;28;19918;-55
2022/10/04 12:15:48;;;;;;;;;;;;;;;16.12;64.71;101938.94;4995974;28;19926;-56
2022/10/04 12:18:16;;;;;;;;;;;;;;;16.15;64.60;101938.78;4994981;28;20345;-52
2022/10/04 12:21:00;;;;;;;;;;;;;;;16.17;64.21;101936.00;4994061;28;19926;-55
2022/10/04 12:23:45;;;;;;;;;;;;;;;16.18;64.36;101937.72;4994852;28;19922;-52
2022/10/04 12:26:31;;;;;;;;;;;;;;;16.17;64.16;101941.31;4992807;28;19971;-53
2022/10/04 12:28:59;;;;;;;;;;;;;;;16.17;63.72;101934.22;4996689;28;20398;-55
2022/10/04 12:31:31;;;;;;;;;;;;;;;16.18;63.73;101933.28;5000726;28;20332;-54
2022/10/04 12:34:00;;;;;;;;;;;;;;;16.22;63.61;101941.88;4999612;28;19925;-53
2022/10/04 12:36:44;;;;;;;;;;;;;;;16.25;63.47;101933.75;4997336;28;19926;-54
2022/10/04 12:39:12;;;;;;;;;;;;;;;16.26;63.40;101925.66;5001673;28;20051;-53
2022/10/04 12:42:01;;;;;;;;;;;;;;;16.31;63.43;101930.69;4997928;28;19975;-52
2022/10/04 12:44:33;;;;;;;;;;;;;;;16.36;63.50;101925.94;4997189;28;19937;-54
2022/10/04 12:47:17;;;;;;;;;;;;;;;16.38;63.27;101918.72;5002376;28;19928;-55
2022/10/04 12:49:45;;;;;;;;;;;;;;;16.41;63.23;101923.81;4999656;28;19925;-52
2022/10/04 12:52:15;;;;;;;;;;;;;;;16.44;62.95;101920.13;4997976;28;19932;-54
2022/10/04 12:54:42;;;;;;;;;;;;;;;16.46;63.06;101924.38;5000036;28;19937;-54
2022/10/04 12:57:07;;;;;;;;;;;;;;;16.50;63.08;101925.03;5001702;28;19925;-55
2022/10/04 12:59:33;;;;;;;;;;;;;;;16.53;63.12;101924.00;4999334;28;20294;-53
2022/10/04 13:02:10;;;;;;;;;;;;;;;16.60;63.06;101933.28;5000949;28;19925;-52
2022/10/04 13:04:40;;;;;;;;;;;;;;;16.66;62.72;101919.59;4998486;28;20476;-51
2022/10/04 13:07:15;;;;;;;;;;;;;;;16.67;62.87;101937.25;4998939;28;19952;-54
2022/10/04 13:09:59;;;;;;;;;;;;;;;16.69;62.68;101932.69;4998503;28;19928;-52
2022/10/04 13:12:33;;;;;;;;;;;;;;;16.67;62.71;101925.75;5000852;28;20469;-54
2022/10/04 13:15:07;;;;;;;;;;;;;;;16.66;62.73;101927.56;4999628;28;19921;-53
2022/10/04 13:17:35;;;;;;;;;;;;;;;16.65;62.44;101915.25;5000500;28;19972;-53
2022/10/04 13:20:33;;;;;;;;;;;;;;;16.66;62.75;101918.72;5000849;28;19940;-52